Time;durP1;ratioP1;P1;durP2;ratioP2;P2;SDS_P1;SDS_P2;PMS_P1;PMS_P2;Temp;Humidity;BMP_temperature;BMP_pressure;BME280_temperature;BME280_humidity;BME280_pressure;Samples;Min_cycle;Max_cycle;Signal;HPM_P1;HPM_P2
2021/01/21 00:00:05;;;;;;;187.10;141.07;;;7.30;99.90;;;;;;5016248;28;20026;-75
2021/01/21 00:02:31;;;;;;;186.80;145.90;;;7.20;99.90;;;;;;5013272;28;20180;-75
2021/01/21 00:04:57;;;;;;;183.05;144.77;;;7.20;99.90;;;;;;5014734;28;20497;-74
2021/01/21 00:07:23;;;;;;;190.25;143.32;;;7.10;99.90;;;;;;5012663;28;20026;-74
2021/01/21 00:09:49;;;;;;;181.35;143.73;;;7.10;99.90;;;;;;5012940;28;20120;-75
2021/01/21 00:12:14;;;;;;;181.05;139.65;;;7.10;99.90;;;;;;5003637;28;20041;-74
2021/01/21 00:14:40;;;;;;;174.00;138.60;;;7.10;99.90;;;;;;5013286;28;20128;-74
2021/01/21 00:17:06;;;;;;;182.35;144.95;;;7.10;99.90;;;;;;5012295;28;20036;-75
2021/01/21 00:19:32;;;;;;;185.05;146.63;;;7.00;99.90;;;;;;5011044;28;20113;-75
2021/01/21 00:21:58;;;;;;;175.93;138.63;;;7.00;99.90;;;;;;5010974;28;20021;-75
2021/01/21 00:24:23;;;;;;;172.77;141.13;;;7.10;99.90;;;;;;5002057;28;20081;-76
2021/01/21 00:26:49;;;;;;;180.85;146.32;;;7.10;99.90;;;;;;5002245;28;20716;-75
2021/01/21 00:29:15;;;;;;;176.35;138.18;;;7.10;99.90;;;;;;5008355;28;20086;-75
2021/01/21 00:31:41;;;;;;;182.10;143.18;;;7.00;99.90;;;;;;5011380;28;20069;-74
2021/01/21 00:34:07;;;;;;;171.55;141.88;;;7.00;99.90;;;;;;5027793;28;20060;-74
2021/01/21 00:36:33;;;;;;;173.25;138.73;;;7.10;99.90;;;;;;5009463;28;20045;-74
2021/01/21 00:38:59;;;;;;;165.52;136.25;;;7.10;99.90;;;;;;5012966;28;20101;-74
2021/01/21 00:41:25;;;;;;;162.15;133.20;;;7.10;99.90;;;;;;5012484;28;20029;-74
2021/01/21 00:43:50;;;;;;;170.60;132.88;;;7.10;99.90;;;;;;5002912;28;20026;-77
2021/01/21 00:46:16;;;;;;;164.00;135.13;;;7.20;99.90;;;;;;5007413;28;20104;-75
2021/01/21 00:48:42;;;;;;;161.15;131.23;;;7.20;99.90;;;;;;5009590;28;20033;-75
2021/01/21 00:51:09;;;;;;;163.00;132.63;;;7.10;99.90;;;;;;5011760;28;20097;-75
2021/01/21 00:53:34;;;;;;;161.68;126.18;;;7.10;99.90;;;;;;5004427;28;20390;-74
2021/01/21 00:56:00;;;;;;;151.48;126.18;;;7.00;99.90;;;;;;5012582;28;20056;-75
2021/01/21 00:58:26;;;;;;;151.68;122.25;;;7.00;99.90;;;;;;5010522;28;20053;-75
2021/01/21 01:00:52;;;;;;;156.88;126.93;;;7.00;99.90;;;;;;5010941;28;20033;-74
2021/01/21 01:03:18;;;;;;;156.50;125.70;;;7.00;99.90;;;;;;5010718;28;20454;-75
2021/01/21 01:05:44;;;;;;;147.35;125.30;;;7.00;99.90;;;;;;5005805;28;20375;-74
2021/01/21 01:08:10;;;;;;;160.45;125.70;;;7.10;99.90;;;;;;5013620;28;20046;-74
2021/01/21 01:10:36;;;;;;;157.30;127.40;;;7.00;99.90;;;;;;5012779;28;20026;-74
2021/01/21 01:13:02;;;;;;;166.82;132.15;;;7.00;99.90;;;;;;5007322;28;20622;-74
2021/01/21 01:15:32;;;;;;;151.38;122.18;;;7.10;99.90;;;;;;5007843;28;20241;-75
2021/01/21 01:17:59;;;;;;;154.40;126.07;;;7.10;99.90;;;;;;5009780;28;20049;-75
2021/01/21 01:20:24;;;;;;;162.63;129.52;;;7.10;99.90;;;;;;5012125;28;20026;-75
2021/01/21 01:22:52;;;;;;;165.57;128.55;;;7.10;99.90;;;;;;5005502;28;20031;-74
2021/01/21 01:25:19;;;;;;;161.68;128.65;;;7.10;99.90;;;;;;4999548;28;20076;-75
2021/01/21 01:27:44;;;;;;;154.88;125.35;;;7.10;99.90;;;;;;5009512;28;20144;-74
2021/01/21 01:30:15;;;;;;;158.80;122.72;;;7.00;99.90;;;;;;5006722;28;20034;-74
2021/01/21 01:32:45;;;;;;;170.27;126.90;;;6.80;99.90;;;;;;5005238;28;20038;-74
2021/01/21 01:35:11;;;;;;;155.70;123.68;;;6.80;99.90;;;;;;5008444;28;20022;-74
2021/01/21 01:37:41;;;;;;;162.85;123.95;;;6.60;99.90;;;;;;5010116;28;20032;-75
2021/01/21 01:40:11;;;;;;;168.15;127.13;;;6.60;99.90;;;;;;5007506;28;20081;-74
2021/01/21 01:42:38;;;;;;;164.27;128.00;;;6.60;99.90;;;;;;5007758;28;20029;-74
2021/01/21 01:45:06;;;;;;;175.70;129.38;;;6.60;99.90;;;;;;5004525;28;20485;-75
2021/01/21 01:47:33;;;;;;;165.48;125.50;;;6.60;99.90;;;;;;5007681;28;20084;-75
2021/01/21 01:49:59;;;;;;;165.63;128.93;;;6.60;99.90;;;;;;5008224;28;20072;-75
2021/01/21 01:52:29;;;;;;;156.25;126.47;;;6.60;99.90;;;;;;5008384;28;20108;-74
2021/01/21 01:54:55;;;;;;;164.07;129.35;;;6.60;99.90;;;;;;5018114;28;20044;-75
2021/01/21 01:57:22;;;;;;;165.05;125.00;;;6.60;99.90;;;;;;5026457;28;20042;-75
2021/01/21 01:59:58;;;;;;;168.27;128.43;;;6.70;99.90;;;;;;5027745;28;20026;-74
2021/01/21 02:02:24;;;;;;;170.00;130.50;;;6.70;99.90;;;;;;5006220;28;20033;-74
2021/01/21 02:04:50;;;;;;;160.60;124.65;;;6.70;99.90;;;;;;5010527;28;20038;-74
2021/01/21 02:07:16;;;;;;;160.98;121.47;;;6.80;99.90;;;;;;5009345;28;20034;-74
2021/01/21 02:09:42;;;;;;;172.32;127.45;;;6.90;99.90;;;;;;5006229;28;20049;-75
2021/01/21 02:12:18;;;;;;;160.10;123.82;;;6.80;99.90;;;;;;5008248;28;20026;-75
2021/01/21 02:14:43;;;;;;;165.95;126.90;;;6.80;99.90;;;;;;5009604;28;20022;-74
2021/01/21 02:17:20;;;;;;;169.02;126.43;;;6.80;99.90;;;;;;5011573;28;20049;-73
2021/01/21 02:20:21;;;;;;;155.27;122.95;;;6.80;99.90;;;;;;5010988;28;20485;-75
2021/01/21 02:23:14;;;;;;;165.25;129.13;;;6.80;99.90;;;;;;5009244;28;20030;-74
2021/01/21 02:25:49;;;;;;;169.95;129.18;;;6.90;99.90;;;;;;5006273;28;20062;-75
2021/01/21 02:28:50;;;;;;;166.90;128.05;;;6.90;99.90;;;;;;5008410;28;20026;-78
2021/01/21 02:31:27;;;;;;;157.48;124.07;;;6.90;99.90;;;;;;4996106;28;20121;-76
2021/01/21 02:34:02;;;;;;;154.65;123.28;;;6.90;99.90;;;;;;5010115;28;20014;-79
2021/01/21 02:36:41;;;;;;;149.45;119.28;;;7.00;99.90;;;;;;5010360;28;20485;-74
2021/01/21 02:39:10;;;;;;;148.52;116.45;;;7.00;99.90;;;;;;5009606;28;20112;-74
2021/01/21 02:41:37;;;;;;;148.90;116.88;;;7.00;99.90;;;;;;5007936;28;20031;-75
2021/01/21 02:44:03;;;;;;;145.93;116.00;;;7.00;99.90;;;;;;5010225;28;20037;-75
2021/01/21 02:46:28;;;;;;;139.77;114.65;;;6.90;99.90;;;;;;5013346;28;20104;-75
2021/01/21 02:48:55;;;;;;;140.10;115.35;;;6.90;99.90;;;;;;5013398;28;20056;-76
2021/01/21 02:51:57;;;;;;;134.75;110.40;;;6.90;99.90;;;;;;5014749;28;20018;-75
2021/01/21 02:54:41;;;;;;;134.27;108.68;;;6.90;99.90;;;;;;5010452;28;20103;-75
2021/01/21 02:57:14;;;;;;;141.80;110.07;;;6.90;99.90;;;;;;5011459;28;20026;-75
2021/01/21 02:59:41;;;;;;;134.43;109.80;;;7.00;99.90;;;;;;5011201;28;20053;-75
2021/01/21 03:02:08;;;;;;;137.82;110.25;;;7.00;99.90;;;;;;5013407;28;20040;-75
2021/01/21 03:04:39;;;;;;;137.63;108.90;;;7.00;99.90;;;;;;5014899;28;20053;-75
2021/01/21 03:07:09;;;;;;;129.13;104.20;;;7.00;99.90;;;;;;5013181;28;20054;-75
2021/01/21 03:09:35;;;;;;;133.45;105.68;;;7.00;99.90;;;;;;5013410;28;20025;-74
2021/01/21 03:12:21;;;;;;;131.60;108.82;;;7.00;99.90;;;;;;5009426;28;20057;-74
2021/01/21 03:14:49;;;;;;;127.75;97.38;;;7.00;99.90;;;;;;5013517;28;20033;-73
2021/01/21 03:17:15;;;;;;;124.18;100.03;;;7.00;99.90;;;;;;5013055;28;20437;-75
2021/01/21 03:19:41;;;;;;;122.20;97.00;;;7.00;99.90;;;;;;5015471;28;20065;-75
2021/01/21 03:22:07;;;;;;;130.75;100.80;;;6.90;99.90;;;;;;5011136;28;20453;-74
2021/01/21 03:24:33;;;;;;;120.53;99.13;;;6.90;99.90;;;;;;5015741;28;20090;-75
2021/01/21 03:26:58;;;;;;;118.65;97.82;;;6.90;99.90;;;;;;5011828;28;20045;-76
2021/01/21 03:29:27;;;;;;;122.20;102.03;;;7.00;99.90;;;;;;5014979;28;20029;-76
2021/01/21 03:31:54;;;;;;;117.35;97.88;;;7.00;99.90;;;;;;5013195;28;20040;-76
2021/01/21 03:34:19;;;;;;;122.07;100.75;;;7.10;99.90;;;;;;5014539;28;20033;-73
2021/01/21 03:36:45;;;;;;;127.05;99.72;;;7.10;99.90;;;;;;5008952;28;20042;-75
2021/01/21 03:39:11;;;;;;;130.50;101.13;;;7.10;99.90;;;;;;5013795;28;20637;-76
2021/01/21 03:41:37;;;;;;;131.00;99.43;;;7.20;99.90;;;;;;5011021;28;20038;-75
2021/01/21 03:44:03;;;;;;;122.20;94.05;;;7.20;99.90;;;;;;5013604;28;20034;-76
2021/01/21 03:46:29;;;;;;;114.93;94.45;;;7.20;99.90;;;;;;5010585;28;20041;-76
2021/01/21 03:48:55;;;;;;;117.68;93.93;;;7.20;99.90;;;;;;5013611;28;20033;-76
2021/01/21 03:51:21;;;;;;;111.18;94.57;;;7.20;99.90;;;;;;5011697;28;20022;-77
2021/01/21 03:53:47;;;;;;;108.93;91.20;;;7.20;99.90;;;;;;5013613;28;20030;-75
2021/01/21 03:56:13;;;;;;;120.47;95.32;;;7.30;99.90;;;;;;5012129;28;20050;-73
2021/01/21 03:58:38;;;;;;;123.80;101.30;;;7.40;99.90;;;;;;5013693;28;20069;-74
2021/01/21 04:01:04;;;;;;;126.38;104.72;;;7.40;99.90;;;;;;5011802;28;20634;-74
2021/01/21 04:03:31;;;;;;;138.77;109.30;;;7.40;99.90;;;;;;5009928;28;20034;-75
2021/01/21 04:05:57;;;;;;;130.95;106.00;;;7.40;99.90;;;;;;5006767;28;20049;-75
2021/01/21 04:08:23;;;;;;;143.50;109.60;;;7.40;99.90;;;;;;5013501;28;20076;-75
2021/01/21 04:10:49;;;;;;;131.88;106.25;;;7.40;99.90;;;;;;5012850;28;20026;-75
2021/01/21 04:13:15;;;;;;;124.70;102.47;;;7.50;99.90;;;;;;5013238;28;20022;-74
2021/01/21 04:15:40;;;;;;;120.32;101.15;;;7.60;99.90;;;;;;5011880;28;20041;-76
2021/01/21 04:18:06;;;;;;;127.65;99.30;;;7.60;99.90;;;;;;5010710;28;20072;-75
2021/01/21 04:20:32;;;;;;;122.30;101.32;;;7.50;99.90;;;;;;5010774;28;20052;-78
2021/01/21 04:22:58;;;;;;;126.57;99.55;;;7.50;99.90;;;;;;5012688;28;20029;-75
2021/01/21 04:25:24;;;;;;;124.45;100.55;;;7.50;99.90;;;;;;5006480;28;20030;-71
2021/01/21 04:27:49;;;;;;;124.60;95.45;;;7.50;99.90;;;;;;5000590;28;20044;-74
2021/01/21 04:30:16;;;;;;;127.40;102.65;;;7.60;99.90;;;;;;5011750;28;20029;-75
2021/01/21 04:32:41;;;;;;;120.53;96.82;;;7.50;99.90;;;;;;5007315;28;20034;-73
2021/01/21 04:35:08;;;;;;;127.18;98.85;;;7.50;99.90;;;;;;5011009;28;20118;-72
2021/01/21 04:37:34;;;;;;;120.60;97.30;;;7.50;99.90;;;;;;5013057;28;20596;-74
2021/01/21 04:39:59;;;;;;;126.35;99.28;;;7.50;99.90;;;;;;5012780;28;20061;-73
2021/01/21 04:42:25;;;;;;;127.07;99.93;;;7.40;99.90;;;;;;5013975;28;20478;-75
2021/01/21 04:44:51;;;;;;;123.72;95.50;;;7.50;99.90;;;;;;5010367;28;20069;-74
2021/01/21 04:47:18;;;;;;;116.65;92.97;;;7.60;99.90;;;;;;5011918;28;20501;-73
2021/01/21 04:49:44;;;;;;;127.10;99.03;;;7.60;99.90;;;;;;5010424;28;20030;-74
2021/01/21 04:52:13;;;;;;;121.20;95.95;;;7.50;99.90;;;;;;5013192;28;20061;-75
2021/01/21 04:54:47;;;;;;;124.50;100.32;;;7.40;99.90;;;;;;5009921;28;20037;-75
2021/01/21 04:57:15;;;;;;;124.45;101.65;;;7.40;99.90;;;;;;5002405;28;20029;-76
2021/01/21 04:59:41;;;;;;;128.10;98.80;;;7.40;99.90;;;;;;5013444;28;20540;-74
2021/01/21 05:02:08;;;;;;;129.05;99.00;;;7.40;99.90;;;;;;5010462;28;20104;-73
2021/01/21 05:04:34;;;;;;;118.72;95.35;;;7.40;99.90;;;;;;5006394;28;20030;-73
2021/01/21 05:07:00;;;;;;;128.00;98.68;;;7.50;99.90;;;;;;5012175;28;20033;-75
2021/01/21 05:09:28;;;;;;;127.47;105.07;;;7.50;99.90;;;;;;5012691;28;20026;-73
2021/01/21 05:11:55;;;;;;;129.38;98.43;;;7.50;99.90;;;;;;5006534;28;20068;-75
2021/01/21 05:14:21;;;;;;;129.27;98.68;;;7.50;99.90;;;;;;5011794;28;20069;-74
2021/01/21 05:16:47;;;;;;;132.88;100.88;;;7.60;99.90;;;;;;5008734;28;20058;-73
2021/01/21 05:19:14;;;;;;;125.88;97.22;;;7.60;99.90;;;;;;5008506;28;20198;-73
2021/01/21 05:21:43;;;;;;;123.40;102.63;;;7.60;99.90;;;;;;5009266;28;20026;-74
2021/01/21 05:24:13;;;;;;;114.70;95.82;;;7.70;99.90;;;;;;5004487;28;20398;-74
2021/01/21 05:26:43;;;;;;;118.80;97.00;;;7.60;99.90;;;;;;5003636;28;20416;-75
2021/01/21 05:29:10;;;;;;;121.93;98.07;;;7.70;99.90;;;;;;5004477;28;20415;-73
2021/01/21 05:31:37;;;;;;;129.05;99.22;;;7.70;99.90;;;;;;5012371;28;20049;-74
2021/01/21 05:34:08;;;;;;;116.60;93.78;;;7.90;99.90;;;;;;5010205;28;20041;-77
2021/01/21 05:36:38;;;;;;;127.38;99.03;;;7.90;99.90;;;;;;5011062;28;20040;-73
2021/01/21 05:39:07;;;;;;;124.97;97.90;;;7.80;99.90;;;;;;5010714;28;20453;-74
2021/01/21 05:41:35;;;;;;;121.65;99.70;;;7.80;99.90;;;;;;5007306;28;20027;-75
2021/01/21 05:44:06;;;;;;;123.90;99.45;;;7.70;99.90;;;;;;5012399;28;20461;-75
2021/01/21 05:46:33;;;;;;;117.65;98.82;;;7.70;99.90;;;;;;5011736;28;20100;-75
2021/01/21 05:49:00;;;;;;;127.05;99.95;;;7.80;99.90;;;;;;5010598;28;20433;-76
2021/01/21 05:51:28;;;;;;;135.48;96.65;;;7.70;99.90;;;;;;5020111;28;20022;-73
2021/01/21 05:53:55;;;;;;;118.50;96.72;;;7.70;99.90;;;;;;5019845;28;20025;-73
2021/01/21 05:56:22;;;;;;;123.60;102.13;;;7.80;99.90;;;;;;5022535;28;20041;-73
2021/01/21 05:58:53;;;;;;;134.30;103.00;;;7.70;99.90;;;;;;5014054;28;20596;-76
2021/01/21 06:01:21;;;;;;;125.93;98.23;;;7.70;99.90;;;;;;5011142;28;20058;-75
2021/01/21 06:03:48;;;;;;;119.05;98.47;;;7.80;99.90;;;;;;5003628;28;20034;-76
2021/01/21 06:06:15;;;;;;;130.43;100.68;;;7.80;99.90;;;;;;5010378;28;20026;-76
2021/01/21 06:08:44;;;;;;;122.70;96.10;;;7.90;99.90;;;;;;5010809;28;20032;-74
2021/01/21 06:11:11;;;;;;;114.10;97.80;;;8.00;99.90;;;;;;5011773;28;20030;-75
2021/01/21 06:13:38;;;;;;;116.30;97.13;;;8.00;99.90;;;;;;5012104;28;20036;-76
2021/01/21 06:16:08;;;;;;;115.82;95.15;;;8.00;99.90;;;;;;5011434;28;20058;-74
2021/01/21 06:18:34;;;;;;;113.13;91.28;;;8.00;99.90;;;;;;5012632;28;20042;-75
2021/01/21 06:21:05;;;;;;;117.85;94.40;;;8.00;99.90;;;;;;5012554;28;20030;-75
2021/01/21 06:23:32;;;;;;;118.85;96.10;;;8.00;99.90;;;;;;5016003;28;20037;-75
2021/01/21 06:25:59;;;;;;;114.97;95.10;;;8.00;99.90;;;;;;4999988;28;20029;-72
2021/01/21 06:28:27;;;;;;;119.05;96.90;;;8.00;99.90;;;;;;5009644;28;20433;-72
2021/01/21 06:30:57;;;;;;;120.35;92.65;;;8.00;99.90;;;;;;5015256;28;20164;-76
2021/01/21 06:33:33;;;;;;;119.13;95.10;;;8.00;99.90;;;;;;5015368;28;20022;-74
2021/01/21 06:36:03;;;;;;;114.43;96.75;;;7.90;99.90;;;;;;5003853;28;20019;-74
2021/01/21 06:38:42;;;;;;;125.72;100.38;;;7.90;99.90;;;;;;5015383;28;20017;-75
2021/01/21 06:41:15;;;;;;;121.47;97.38;;;7.90;99.90;;;;;;5015155;28;20030;-75
2021/01/21 06:43:41;;;;;;;118.70;94.32;;;7.80;99.90;;;;;;5015578;28;20041;-75
2021/01/21 06:46:08;;;;;;;120.55;98.90;;;7.80;99.90;;;;;;5013011;28;20336;-74
2021/01/21 06:48:34;;;;;;;111.20;94.43;;;7.90;99.90;;;;;;5013511;28;20026;-73
2021/01/21 06:51:08;;;;;;;112.30;93.22;;;7.80;99.90;;;;;;5012615;28;20026;-73
2021/01/21 06:53:35;;;;;;;109.45;93.15;;;7.80;99.90;;;;;;5015731;28;20050;-71
2021/01/21 06:56:01;;;;;;;110.82;85.82;;;7.80;99.90;;;;;;5012875;28;20050;-70
2021/01/21 06:58:51;;;;;;;109.88;87.78;;;7.80;99.90;;;;;;5009891;28;20038;-74
2021/01/21 07:01:32;;;;;;;104.43;85.90;;;7.90;99.90;;;;;;5013323;28;20445;-73
2021/01/21 07:03:58;;;;;;;106.82;86.45;;;8.10;99.90;;;;;;5010268;28;20109;-77
2021/01/21 07:06:24;;;;;;;102.30;84.70;;;8.30;99.90;;;;;;5014006;28;20129;-75
2021/01/21 07:09:11;;;;;;;103.82;84.90;;;8.40;99.90;;;;;;5013384;28;20030;-76
2021/01/21 07:11:37;;;;;;;98.35;84.57;;;8.60;99.90;;;;;;5014632;28;20033;-77
2021/01/21 07:14:10;;;;;;;102.10;82.55;;;8.50;99.90;;;;;;5013821;28;20041;-75
2021/01/21 07:16:36;;;;;;;101.05;79.43;;;8.60;99.90;;;;;;5014736;28;20450;-75
2021/01/21 07:19:03;;;;;;;92.65;73.88;;;8.50;99.90;;;;;;5020323;28;20038;-75
2021/01/21 07:21:32;;;;;;;83.50;70.15;;;8.80;99.90;;;;;;5022427;28;20021;-75
2021/01/21 07:23:59;;;;;;;89.53;75.07;;;8.90;99.90;;;;;;5021093;28;20037;-75
2021/01/21 07:26:28;;;;;;;88.20;71.47;;;9.10;99.90;;;;;;5014588;28;20417;-75
2021/01/21 07:29:13;;;;;;;93.20;76.15;;;9.20;99.90;;;;;;5012832;28;20029;-78
2021/01/21 07:31:55;;;;;;;90.88;79.10;;;9.10;99.90;;;;;;5013790;28;20034;-80
2021/01/21 07:34:24;;;;;;;;;;;9.20;99.90;;;;;;5010146;28;20409;-75
2021/01/21 07:37:17;;;;;;;91.35;75.88;;;9.20;99.90;;;;;;5009895;28;19952;-75
2021/01/21 07:40:08;;;;;;;102.85;79.07;;;9.20;99.90;;;;;;5012518;28;20036;-76
2021/01/21 07:42:36;;;;;;;96.25;75.97;;;9.10;99.90;;;;;;5005734;28;20100;-75
2021/01/21 07:45:14;;;;;;;89.88;73.93;;;9.20;99.90;;;;;;5011468;28;21251;-75
2021/01/21 07:47:42;;;;;;;95.18;76.88;;;9.30;99.90;;;;;;5009378;28;20107;-77
2021/01/21 07:50:22;;;;;;;82.20;72.15;;;9.40;99.90;;;;;;5009427;28;20044;-79
2021/01/21 07:52:49;;;;;;;96.55;78.10;;;9.30;99.90;;;;;;5011313;28;20026;-76
2021/01/21 07:55:36;;;;;;;96.38;76.20;;;9.40;99.90;;;;;;5013057;28;20025;-76
2021/01/21 07:58:16;;;;;;;92.10;73.18;;;9.50;99.90;;;;;;5013362;28;20121;-76
2021/01/21 08:00:42;;;;;;;91.10;74.20;;;9.70;99.90;;;;;;5012554;28;20053;-76
2021/01/21 08:03:08;;;;;;;87.30;72.63;;;9.80;99.90;;;;;;5005512;28;20553;-75
2021/01/21 08:05:34;;;;;;;89.35;72.63;;;9.80;99.90;;;;;;5006940;28;20030;-74
2021/01/21 08:08:03;;;;;;;90.78;74.22;;;9.80;99.90;;;;;;5014547;28;20395;-75
2021/01/21 08:10:34;;;;;;;88.00;74.63;;;9.90;99.90;;;;;;5009329;28;20025;-75
2021/01/21 08:13:01;;;;;;;83.93;71.05;;;10.00;99.90;;;;;;5013044;28;20477;-73
2021/01/21 08:15:28;;;;;;;96.05;72.55;;;10.00;99.90;;;;;;5011915;28;20109;-75
2021/01/21 08:17:55;;;;;;;79.50;70.13;;;10.10;99.90;;;;;;5010582;28;20032;-76
2021/01/21 08:20:25;;;;;;;109.88;71.07;;;10.20;99.90;;;;;;5012910;28;20377;-75
2021/01/21 08:22:58;;;;;;;82.45;72.63;;;10.10;99.90;;;;;;5011723;28;20091;-75
2021/01/21 08:25:39;;;;;;;80.78;71.15;;;10.10;99.90;;;;;;5005577;28;20045;-74
2021/01/21 08:28:05;;;;;;;84.75;71.95;;;10.30;99.90;;;;;;5000509;28;20026;-77
2021/01/21 08:30:31;;;;;;;97.40;78.50;;;10.40;99.90;;;;;;5011628;28;20025;-77
2021/01/21 08:33:28;;;;;;;86.30;73.30;;;10.30;99.90;;;;;;5013412;28;20117;-74
2021/01/21 08:36:11;;;;;;;87.22;73.25;;;10.40;99.90;;;;;;4995777;28;20512;-75
2021/01/21 08:38:42;;;;;;;81.57;69.03;;;10.40;99.90;;;;;;5012105;28;20030;-75
2021/01/21 08:41:15;;;;;;;77.97;69.53;;;10.40;99.90;;;;;;5006563;28;20018;-74
2021/01/21 08:43:43;;;;;;;86.45;74.93;;;10.60;99.90;;;;;;5003785;28;20030;-74
2021/01/21 08:46:19;;;;;;;87.85;72.25;;;10.50;99.90;;;;;;5013504;28;20059;-74
2021/01/21 08:48:49;;;;;;;85.63;75.35;;;10.50;99.90;;;;;;5012756;28;20145;-77
2021/01/21 08:51:41;;;;;;;86.82;70.75;;;10.60;99.90;;;;;;5011791;28;20042;-76
2021/01/21 08:54:10;;;;;;;94.45;78.05;;;10.50;99.90;;;;;;5009359;28;20029;-74
2021/01/21 08:56:36;;;;;;;99.70;77.57;;;10.50;99.90;;;;;;5011672;28;20037;-74
2021/01/21 08:59:25;;;;;;;107.60;76.90;;;10.40;99.90;;;;;;5012779;28;20022;-75
2021/01/21 09:01:51;;;;;;;99.30;77.70;;;10.30;99.90;;;;;;5012369;28;20195;-75
2021/01/21 09:04:30;;;;;;;86.63;70.22;;;10.20;99.90;;;;;;5012162;28;20034;-75
2021/01/21 09:06:57;;;;;;;97.32;72.97;;;10.10;99.90;;;;;;5011406;28;20041;-74
2021/01/21 09:09:37;;;;;;;89.85;72.60;;;10.00;99.90;;;;;;5011997;28;20021;-74
2021/01/21 09:12:32;;;;;;;89.75;70.55;;;9.80;99.90;;;;;;5014188;28;20613;-74
2021/01/21 09:15:11;;;;;;;96.05;74.82;;;9.80;99.90;;;;;;4994176;28;20514;-74
2021/01/21 09:17:38;;;;;;;89.63;69.00;;;9.80;99.90;;;;;;5011907;28;20022;-74
2021/01/21 09:20:20;;;;;;;87.57;70.82;;;10.00;99.90;;;;;;5012403;28;20172;-73
2021/01/21 09:22:46;;;;;;;90.82;74.72;;;10.20;99.90;;;;;;5010149;28;20398;-75
2021/01/21 09:25:12;;;;;;;95.75;71.93;;;10.20;99.90;;;;;;5017478;28;20041;-75
2021/01/21 09:27:39;;;;;;;89.60;73.47;;;10.30;99.90;;;;;;5018611;28;20371;-75
2021/01/21 09:30:12;;;;;;;87.40;71.15;;;10.20;99.90;;;;;;5012465;28;20022;-75
2021/01/21 09:32:44;;;;;;;89.22;70.30;;;10.30;99.90;;;;;;5012610;28;20105;-78
2021/01/21 09:35:14;;;;;;;97.28;70.78;;;10.20;99.90;;;;;;5006007;28;20030;-75
2021/01/21 09:37:42;;;;;;;89.93;68.88;;;10.20;99.90;;;;;;5010298;28;20080;-75
2021/01/21 09:40:10;;;;;;;106.57;77.65;;;10.10;99.90;;;;;;5015432;28;20033;-75
2021/01/21 09:42:36;;;;;;;120.53;80.78;;;10.30;99.90;;;;;;5024904;28;20030;-75
2021/01/21 09:45:03;;;;;;;106.70;81.80;;;10.50;99.90;;;;;;5025406;28;20038;-75
2021/01/21 09:47:29;;;;;;;171.52;107.32;;;10.60;99.90;;;;;;5007730;28;20062;-75
2021/01/21 09:49:56;;;;;;;118.93;91.45;;;10.50;99.90;;;;;;5010433;28;20080;-75
2021/01/21 09:52:22;;;;;;;96.70;75.55;;;10.60;99.90;;;;;;5012031;28;20052;-75
2021/01/21 09:54:47;;;;;;;91.05;73.07;;;10.40;99.90;;;;;;5014156;28;20101;-75
2021/01/21 09:57:13;;;;;;;93.50;74.47;;;10.30;99.90;;;;;;5014621;28;20089;-75
2021/01/21 09:59:39;;;;;;;91.18;74.97;;;10.20;99.90;;;;;;5015794;28;20037;-76
2021/01/21 10:02:05;;;;;;;89.35;73.25;;;10.20;99.90;;;;;;5015218;28;20036;-75
2021/01/21 10:04:35;;;;;;;106.80;81.85;;;10.30;99.90;;;;;;5015298;28;20034;-76
2021/01/21 10:07:01;;;;;;;106.63;79.07;;;10.40;99.90;;;;;;5014641;28;20118;-76
2021/01/21 10:09:27;;;;;;;145.13;75.78;;;10.60;99.90;;;;;;5015169;28;20465;-75
2021/01/21 10:11:53;;;;;;;126.07;76.15;;;10.60;99.90;;;;;;5016810;28;20018;-75
2021/01/21 10:14:19;;;;;;;92.70;77.65;;;10.60;99.90;;;;;;5015394;28;20021;-75
2021/01/21 10:16:45;;;;;;;95.13;77.85;;;10.70;99.90;;;;;;5015648;28;20034;-75
2021/01/21 10:19:11;;;;;;;95.82;76.57;;;10.70;99.90;;;;;;5014653;28;20014;-75
2021/01/21 10:21:37;;;;;;;100.75;80.75;;;10.60;99.90;;;;;;5015814;28;20037;-75
2021/01/21 10:24:06;;;;;;;128.27;85.18;;;10.60;99.90;;;;;;5012027;28;20026;-75
2021/01/21 10:26:32;;;;;;;116.82;90.78;;;10.50;99.90;;;;;;5006956;28;20061;-75
2021/01/21 10:28:58;;;;;;;119.82;89.18;;;10.40;99.90;;;;;;5011284;28;20022;-76
2021/01/21 10:31:24;;;;;;;116.13;89.97;;;10.30;99.90;;;;;;5015234;28;20386;-76
2021/01/21 10:33:50;;;;;;;116.85;85.80;;;10.30;99.90;;;;;;5014646;28;20052;-76
2021/01/21 10:36:16;;;;;;;106.60;85.45;;;10.30;99.90;;;;;;5015040;28;20072;-76
2021/01/21 10:38:41;;;;;;;115.47;87.38;;;10.40;99.90;;;;;;5013254;28;20056;-75
2021/01/21 10:41:08;;;;;;;105.57;84.95;;;10.40;99.90;;;;;;5015196;28;20022;-76
2021/01/21 10:43:34;;;;;;;101.20;83.25;;;10.40;99.90;;;;;;5015370;28;20049;-75
2021/01/21 10:46:00;;;;;;;88.60;74.80;;;10.50;99.90;;;;;;5014572;28;20034;-75
2021/01/21 10:48:27;;;;;;;93.40;74.10;;;10.60;99.90;;;;;;5015707;28;20057;-74
2021/01/21 10:50:53;;;;;;;86.57;73.70;;;10.50;99.90;;;;;;5014892;28;20390;-74
2021/01/21 10:53:19;;;;;;;94.30;72.68;;;10.50;99.90;;;;;;5013887;28;20014;-75
2021/01/21 10:55:45;;;;;;;98.00;72.57;;;10.40;99.90;;;;;;5014949;28;20438;-75
2021/01/21 10:58:11;;;;;;;89.38;73.22;;;10.40;99.90;;;;;;5005331;28;20033;-74
2021/01/21 11:00:37;;;;;;;83.70;71.85;;;10.40;99.90;;;;;;5020779;28;20044;-75
2021/01/21 11:03:03;;;;;;;87.22;74.35;;;10.40;99.90;;;;;;5015531;28;20072;-75
2021/01/21 11:05:29;;;;;;;98.22;81.30;;;10.50;99.90;;;;;;5009233;28;20025;-74
2021/01/21 11:07:55;;;;;;;96.32;85.82;;;10.60;99.90;;;;;;5012718;28;20473;-74
2021/01/21 11:10:21;;;;;;;108.10;87.80;;;10.60;99.90;;;;;;5015894;28;20028;-74
2021/01/21 11:12:50;;;;;;;102.75;85.63;;;10.80;99.90;;;;;;5015331;28;20034;-74
2021/01/21 11:15:17;;;;;;;102.82;83.55;;;11.00;99.90;;;;;;5009087;28;20037;-76
2021/01/21 11:17:45;;;;;;;105.55;82.82;;;10.90;99.90;;;;;;5026871;28;20362;-76
2021/01/21 11:20:12;;;;;;;109.22;87.53;;;10.90;99.90;;;;;;5030285;28;20037;-75
2021/01/21 11:22:38;;;;;;;100.32;85.35;;;10.80;99.90;;;;;;5024585;28;20044;-75
2021/01/21 11:25:08;;;;;;;101.85;80.40;;;10.70;99.90;;;;;;5012062;28;20038;-75
2021/01/21 11:27:35;;;;;;;108.40;80.60;;;10.60;99.90;;;;;;5021176;28;20052;-75
2021/01/21 11:30:05;;;;;;;116.43;86.78;;;10.60;99.90;;;;;;5022487;28;20017;-75
2021/01/21 11:32:31;;;;;;;103.93;82.95;;;10.60;99.90;;;;;;5020998;28;20056;-75
2021/01/21 11:34:57;;;;;;;101.70;80.00;;;10.60;99.90;;;;;;5014339;28;20026;-75
2021/01/21 11:37:22;;;;;;;111.82;81.43;;;10.60;99.90;;;;;;5011643;28;20120;-75
2021/01/21 11:39:48;;;;;;;100.78;82.50;;;10.50;99.90;;;;;;5014620;28;20421;-76
2021/01/21 11:42:14;;;;;;;104.45;83.43;;;10.40;99.90;;;;;;5013849;28;20026;-75
2021/01/21 11:44:40;;;;;;;106.63;89.72;;;10.40;99.90;;;;;;5010848;28;20455;-75
2021/01/21 11:47:06;;;;;;;100.80;84.75;;;10.30;99.90;;;;;;5011716;28;20026;-75
2021/01/21 11:49:32;;;;;;;112.95;91.93;;;10.30;99.90;;;;;;5016000;28;20022;-76
2021/01/21 11:51:58;;;;;;;112.82;91.13;;;10.30;99.90;;;;;;5015687;28;20106;-75
2021/01/21 11:54:25;;;;;;;108.88;91.82;;;10.30;99.90;;;;;;5021101;28;20017;-76
2021/01/21 11:56:51;;;;;;;106.88;91.75;;;10.30;99.90;;;;;;5025705;28;20014;-76
2021/01/21 11:59:17;;;;;;;107.22;88.25;;;10.30;99.90;;;;;;5021019;28;20394;-76
2021/01/21 12:01:43;;;;;;;98.63;87.90;;;10.30;99.90;;;;;;5025267;28;20088;-76
2021/01/21 12:04:09;;;;;;;106.07;86.43;;;10.30;99.90;;;;;;5021664;28;20076;-76
2021/01/21 12:06:35;;;;;;;106.20;88.53;;;10.30;99.90;;;;;;5017149;28;20084;-76
2021/01/21 12:09:03;;;;;;;101.93;87.38;;;10.30;99.90;;;;;;5014588;28;20029;-75
2021/01/21 12:11:32;;;;;;;102.47;86.75;;;10.30;99.90;;;;;;5012421;28;20172;-75
2021/01/21 12:13:58;;;;;;;111.25;86.20;;;10.40;99.90;;;;;;5009428;28;20068;-75
2021/01/21 12:16:24;;;;;;;104.80;82.85;;;10.60;99.90;;;;;;5014769;28;20038;-75
2021/01/21 12:18:50;;;;;;;110.15;90.88;;;10.80;99.90;;;;;;5013375;28;20026;-76
2021/01/21 12:21:16;;;;;;;112.28;88.97;;;10.80;99.90;;;;;;5012458;28;20593;-75
2021/01/21 12:23:42;;;;;;;111.43;88.07;;;10.80;99.90;;;;;;5010475;28;20068;-74
2021/01/21 12:26:08;;;;;;;112.15;91.82;;;10.80;99.90;;;;;;5006142;28;20022;-73
2021/01/21 12:28:34;;;;;;;107.50;88.95;;;10.80;99.90;;;;;;5013805;28;20030;-76
2021/01/21 12:31:01;;;;;;;108.97;84.60;;;10.90;99.90;;;;;;5011029;28;20108;-79